sensor_id;sensor_type;location;lat;lon;timestamp;P1;durP1;ratioP1;P2;durP2;ratioP2
69036;SDS011;58547;51.690;5.186;2022-12-18T00:01:25;54.17;;;24.33;;
69036;SDS011;58547;51.690;5.186;2022-12-18T00:03:51;56.00;;;25.30;;
69036;SDS011;58547;51.690;5.186;2022-12-18T00:06:17;53.45;;;26.08;;
69036;SDS011;58547;51.690;5.186;2022-12-18T00:08:43;49.33;;;22.13;;
69036;SDS011;58547;51.690;5.186;2022-12-18T00:11:16;35.38;;;16.67;;
69036;SDS011;58547;51.690;5.186;2022-12-18T00:13:44;54.23;;;24.57;;
69036;SDS011;58547;51.690;5.186;2022-12-18T00:16:12;58.67;;;24.38;;
69036;SDS011;58547;51.690;5.186;2022-12-18T00:18:39;52.07;;;21.40;;
69036;SDS011;58547;51.690;5.186;2022-12-18T00:21:06;53.65;;;24.38;;
69036;SDS011;58547;51.690;5.186;2022-12-18T00:23:33;53.33;;;24.00;;
69036;SDS011;58547;51.690;5.186;2022-12-18T00:26:03;59.43;;;24.63;;
69036;SDS011;58547;51.690;5.186;2022-12-18T00:28:31;53.00;;;23.27;;
69036;SDS011;58547;51.690;5.186;2022-12-18T00:31:39;52.35;;;23.05;;
69036;SDS011;58547;51.690;5.186;2022-12-18T00:33:46;28.10;;;12.73;;
69036;SDS011;58547;51.690;5.186;2022-12-18T00:36:16;51.92;;;19.48;;
69036;SDS011;58547;51.690;5.186;2022-12-18T00:38:44;34.23;;;17.30;;
69036;SDS011;58547;51.690;5.186;2022-12-18T00:41:10;30.73;;;15.33;;
69036;SDS011;58547;51.690;5.186;2022-12-18T00:43:38;33.53;;;16.97;;
69036;SDS011;58547;51.690;5.186;2022-12-18T00:46:04;53.03;;;21.38;;
69036;SDS011;58547;51.690;5.186;2022-12-18T00:48:29;59.20;;;24.70;;
69036;SDS011;58547;51.690;5.186;2022-12-18T00:50:55;51.27;;;24.53;;
69036;SDS011;58547;51.690;5.186;2022-12-18T00:53:20;54.22;;;25.73;;
69036;SDS011;58547;51.690;5.186;2022-12-18T00:55:46;52.70;;;21.85;;
69036;SDS011;58547;51.690;5.186;2022-12-18T00:58:12;52.30;;;23.88;;
69036;SDS011;58547;51.690;5.186;2022-12-18T01:00:39;72.20;;;27.33;;
69036;SDS011;58547;51.690;5.186;2022-12-18T01:03:04;50.50;;;22.87;;
69036;SDS011;58547;51.690;5.186;2022-12-18T01:05:30;54.00;;;25.98;;
69036;SDS011;58547;51.690;5.186;2022-12-18T01:07:56;62.22;;;27.63;;
69036;SDS011;58547;51.690;5.186;2022-12-18T01:10:22;51.88;;;23.73;;
69036;SDS011;58547;51.690;5.186;2022-12-18T01:12:48;55.08;;;26.30;;
69036;SDS011;58547;51.690;5.186;2022-12-18T01:15:13;44.23;;;19.33;;
69036;SDS011;58547;51.690;5.186;2022-12-18T01:17:39;50.47;;;22.80;;
69036;SDS011;58547;51.690;5.186;2022-12-18T01:20:05;50.27;;;24.43;;
69036;SDS011;58547;51.690;5.186;2022-12-18T01:22:35;50.50;;;24.80;;
69036;SDS011;58547;51.690;5.186;2022-12-18T01:25:01;63.20;;;25.83;;
69036;SDS011;58547;51.690;5.186;2022-12-18T01:27:26;58.45;;;25.13;;
69036;SDS011;58547;51.690;5.186;2022-12-18T01:29:51;46.53;;;23.30;;
69036;SDS011;58547;51.690;5.186;2022-12-18T01:32:17;51.27;;;23.63;;
69036;SDS011;58547;51.690;5.186;2022-12-18T01:34:42;46.27;;;22.53;;
69036;SDS011;58547;51.690;5.186;2022-12-18T01:37:07;61.13;;;25.23;;
69036;SDS011;58547;51.690;5.186;2022-12-18T01:39:33;55.27;;;25.77;;
69036;SDS011;58547;51.690;5.186;2022-12-18T01:41:59;58.00;;;23.17;;
69036;SDS011;58547;51.690;5.186;2022-12-18T01:47:44;58.13;;;25.57;;
69036;SDS011;58547;51.690;5.186;2022-12-18T01:50:11;53.83;;;25.40;;
69036;SDS011;58547;51.690;5.186;2022-12-18T01:52:41;49.87;;;24.47;;
69036;SDS011;58547;51.690;5.186;2022-12-18T01:55:11;34.70;;;19.10;;
69036;SDS011;58547;51.690;5.186;2022-12-18T01:57:38;25.93;;;10.53;;
69036;SDS011;58547;51.690;5.186;2022-12-18T02:00:06;56.03;;;24.10;;
69036;SDS011;58547;51.690;5.186;2022-12-18T02:02:34;51.03;;;24.17;;
69036;SDS011;58547;51.690;5.186;2022-12-18T02:05:00;49.10;;;22.17;;
69036;SDS011;58547;51.690;5.186;2022-12-18T02:07:30;26.97;;;14.47;;
69036;SDS011;58547;51.690;5.186;2022-12-18T02:10:17;62.10;;;24.70;;
69036;SDS011;58547;51.690;5.186;2022-12-18T02:13:25;209.53;;;32.17;;
69036;SDS011;58547;51.690;5.186;2022-12-18T02:18:28;50.90;;;23.70;;
69036;SDS011;58547;51.690;5.186;2022-12-18T02:21:05;41.97;;;19.93;;
69036;SDS011;58547;51.690;5.186;2022-12-18T02:26:17;53.27;;;23.93;;
69036;SDS011;58547;51.690;5.186;2022-12-18T02:28:52;41.00;;;22.00;;
69036;SDS011;58547;51.690;5.186;2022-12-18T02:31:22;49.27;;;22.03;;
69036;SDS011;58547;51.690;5.186;2022-12-18T02:33:52;48.70;;;22.33;;
69036;SDS011;58547;51.690;5.186;2022-12-18T02:36:23;46.53;;;22.63;;
69036;SDS011;58547;51.690;5.186;2022-12-18T02:38:52;53.30;;;23.97;;
69036;SDS011;58547;51.690;5.186;2022-12-18T02:41:20;43.63;;;21.83;;
69036;SDS011;58547;51.690;5.186;2022-12-18T02:43:53;41.23;;;21.33;;
69036;SDS011;58547;51.690;5.186;2022-12-18T02:49:02;45.73;;;21.83;;
69036;SDS011;58547;51.690;5.186;2022-12-18T02:51:42;41.83;;;19.97;;
69036;SDS011;58547;51.690;5.186;2022-12-18T02:55:00;46.93;;;22.80;;
69036;SDS011;58547;51.690;5.186;2022-12-18T02:57:42;41.20;;;19.17;;
69036;SDS011;58547;51.690;5.186;2022-12-18T03:00:11;38.90;;;19.92;;
69036;SDS011;58547;51.690;5.186;2022-12-18T03:02:48;40.17;;;17.93;;
69036;SDS011;58547;51.690;5.186;2022-12-18T03:05:21;46.17;;;22.63;;
69036;SDS011;58547;51.690;5.186;2022-12-18T03:10:32;34.20;;;19.87;;
69036;SDS011;58547;51.690;5.186;2022-12-18T03:13:26;37.87;;;17.93;;
69036;SDS011;58547;51.690;5.186;2022-12-18T03:15:59;44.07;;;22.80;;
69036;SDS011;58547;51.690;5.186;2022-12-18T03:21:14;36.87;;;18.77;;
69036;SDS011;58547;51.690;5.186;2022-12-18T03:23:46;34.83;;;17.40;;
69036;SDS011;58547;51.690;5.186;2022-12-18T03:26:15;38.20;;;20.50;;
69036;SDS011;58547;51.690;5.186;2022-12-18T03:28:49;46.17;;;20.30;;
69036;SDS011;58547;51.690;5.186;2022-12-18T03:31:18;37.03;;;18.63;;
69036;SDS011;58547;51.690;5.186;2022-12-18T03:33:51;36.50;;;18.30;;
69036;SDS011;58547;51.690;5.186;2022-12-18T03:36:19;38.63;;;19.20;;
69036;SDS011;58547;51.690;5.186;2022-12-18T03:38:45;39.75;;;19.15;;
69036;SDS011;58547;51.690;5.186;2022-12-18T03:43:52;36.23;;;17.47;;
69036;SDS011;58547;51.690;5.186;2022-12-18T03:49:23;42.83;;;21.03;;
69036;SDS011;58547;51.690;5.186;2022-12-18T03:52:17;37.10;;;18.17;;
69036;SDS011;58547;51.690;5.186;2022-12-18T03:54:53;38.33;;;18.63;;
69036;SDS011;58547;51.690;5.186;2022-12-18T03:57:21;34.10;;;18.80;;
69036;SDS011;58547;51.690;5.186;2022-12-18T03:59:51;34.27;;;17.20;;
69036;SDS011;58547;51.690;5.186;2022-12-18T04:02:22;39.63;;;18.90;;
69036;SDS011;58547;51.690;5.186;2022-12-18T04:04:50;25.70;;;15.87;;
69036;SDS011;58547;51.690;5.186;2022-12-18T04:07:18;39.47;;;19.17;;
69036;SDS011;58547;51.690;5.186;2022-12-18T04:09:45;34.00;;;18.20;;
69036;SDS011;58547;51.690;5.186;2022-12-18T04:12:12;34.93;;;18.60;;
69036;SDS011;58547;51.690;5.186;2022-12-18T04:14:37;36.00;;;17.60;;
69036;SDS011;58547;51.690;5.186;2022-12-18T04:17:03;42.50;;;19.80;;
69036;SDS011;58547;51.690;5.186;2022-12-18T04:19:28;41.17;;;18.80;;
69036;SDS011;58547;51.690;5.186;2022-12-18T04:21:53;30.97;;;18.13;;
69036;SDS011;58547;51.690;5.186;2022-12-18T04:24:19;32.95;;;18.42;;
69036;SDS011;58547;51.690;5.186;2022-12-18T04:26:44;33.22;;;16.52;;
69036;SDS011;58547;51.690;5.186;2022-12-18T04:29:10;40.30;;;19.20;;
69036;SDS011;58547;51.690;5.186;2022-12-18T04:31:35;33.10;;;17.33;;
69036;SDS011;58547;51.690;5.186;2022-12-18T04:34:01;36.23;;;17.23;;
69036;SDS011;58547;51.690;5.186;2022-12-18T04:36:26;33.50;;;17.35;;
69036;SDS011;58547;51.690;5.186;2022-12-18T04:38:52;33.33;;;16.88;;
69036;SDS011;58547;51.690;5.186;2022-12-18T04:41:17;30.00;;;15.35;;
69036;SDS011;58547;51.690;5.186;2022-12-18T04:43:43;31.97;;;16.03;;
69036;SDS011;58547;51.690;5.186;2022-12-18T04:46:08;37.13;;;17.77;;
69036;SDS011;58547;51.690;5.186;2022-12-18T04:48:34;30.23;;;17.13;;
69036;SDS011;58547;51.690;5.186;2022-12-18T04:51:02;34.63;;;17.37;;
69036;SDS011;58547;51.690;5.186;2022-12-18T04:53:28;30.30;;;16.23;;
69036;SDS011;58547;51.690;5.186;2022-12-18T04:56:06;28.97;;;15.20;;
69036;SDS011;58547;51.690;5.186;2022-12-18T04:58:34;28.97;;;15.70;;
69036;SDS011;58547;51.690;5.186;2022-12-18T05:03:26;30.87;;;16.27;;
69036;SDS011;58547;51.690;5.186;2022-12-18T05:05:51;27.97;;;14.73;;
69036;SDS011;58547;51.690;5.186;2022-12-18T05:08:17;28.63;;;15.77;;
69036;SDS011;58547;51.690;5.186;2022-12-18T05:10:42;36.70;;;16.27;;
69036;SDS011;58547;51.690;5.186;2022-12-18T05:13:08;27.63;;;16.50;;
69036;SDS011;58547;51.690;5.186;2022-12-18T05:15:33;28.60;;;14.50;;
69036;SDS011;58547;51.690;5.186;2022-12-18T05:17:59;39.08;;;16.95;;
69036;SDS011;58547;51.690;5.186;2022-12-18T05:20:25;35.03;;;18.27;;
69036;SDS011;58547;51.690;5.186;2022-12-18T05:22:52;31.50;;;16.10;;
69036;SDS011;58547;51.690;5.186;2022-12-18T05:25:18;24.65;;;14.65;;
69036;SDS011;58547;51.690;5.186;2022-12-18T05:27:43;30.02;;;13.70;;
69036;SDS011;58547;51.690;5.186;2022-12-18T05:30:10;30.77;;;16.83;;
69036;SDS011;58547;51.690;5.186;2022-12-18T05:32:36;33.77;;;17.27;;
69036;SDS011;58547;51.690;5.186;2022-12-18T05:35:02;33.03;;;16.30;;
69036;SDS011;58547;51.690;5.186;2022-12-18T05:37:28;26.93;;;13.60;;
69036;SDS011;58547;51.690;5.186;2022-12-18T05:39:54;35.80;;;17.87;;
69036;SDS011;58547;51.690;5.186;2022-12-18T05:42:19;31.87;;;17.00;;
69036;SDS011;58547;51.690;5.186;2022-12-18T05:44:44;30.77;;;15.27;;
69036;SDS011;58547;51.690;5.186;2022-12-18T05:47:10;28.00;;;14.97;;
69036;SDS011;58547;51.690;5.186;2022-12-18T05:49:35;36.10;;;17.40;;
69036;SDS011;58547;51.690;5.186;2022-12-18T05:52:00;30.80;;;16.00;;
69036;SDS011;58547;51.690;5.186;2022-12-18T05:54:29;25.98;;;15.00;;
69036;SDS011;58547;51.690;5.186;2022-12-18T05:56:54;30.97;;;15.37;;
69036;SDS011;58547;51.690;5.186;2022-12-18T05:59:19;33.27;;;16.07;;
69036;SDS011;58547;51.690;5.186;2022-12-18T06:01:45;24.48;;;13.77;;
69036;SDS011;58547;51.690;5.186;2022-12-18T06:04:11;28.00;;;15.57;;
69036;SDS011;58547;51.690;5.186;2022-12-18T06:06:36;28.77;;;16.75;;
69036;SDS011;58547;51.690;5.186;2022-12-18T06:09:03;29.10;;;15.43;;
69036;SDS011;58547;51.690;5.186;2022-12-18T06:11:33;27.33;;;15.87;;
69036;SDS011;58547;51.690;5.186;2022-12-18T06:14:00;27.40;;;14.43;;
69036;SDS011;58547;51.690;5.186;2022-12-18T06:16:26;26.75;;;15.82;;
69036;SDS011;58547;51.690;5.186;2022-12-18T06:18:52;25.30;;;13.23;;
69036;SDS011;58547;51.690;5.186;2022-12-18T06:21:17;28.27;;;15.35;;
69036;SDS011;58547;51.690;5.186;2022-12-18T06:23:43;24.33;;;14.23;;
69036;SDS011;58547;51.690;5.186;2022-12-18T06:26:09;21.67;;;12.80;;
69036;SDS011;58547;51.690;5.186;2022-12-18T06:28:37;26.00;;;13.70;;
69036;SDS011;58547;51.690;5.186;2022-12-18T06:31:03;24.75;;;13.95;;
69036;SDS011;58547;51.690;5.186;2022-12-18T06:33:29;20.60;;;12.23;;
69036;SDS011;58547;51.690;5.186;2022-12-18T06:35:54;28.33;;;16.00;;
69036;SDS011;58547;51.690;5.186;2022-12-18T06:38:35;26.53;;;15.03;;
69036;SDS011;58547;51.690;5.186;2022-12-18T06:41:06;32.53;;;15.10;;
69036;SDS011;58547;51.690;5.186;2022-12-18T06:43:39;21.33;;;12.23;;
69036;SDS011;58547;51.690;5.186;2022-12-18T06:46:04;22.80;;;12.03;;
69036;SDS011;58547;51.690;5.186;2022-12-18T06:50:56;20.43;;;12.53;;
69036;SDS011;58547;51.690;5.186;2022-12-18T06:53:22;26.70;;;15.10;;
69036;SDS011;58547;51.690;5.186;2022-12-18T06:55:47;20.50;;;12.55;;
69036;SDS011;58547;51.690;5.186;2022-12-18T06:58:12;27.40;;;13.88;;
69036;SDS011;58547;51.690;5.186;2022-12-18T07:00:38;27.40;;;16.20;;
69036;SDS011;58547;51.690;5.186;2022-12-18T07:03:03;24.87;;;14.23;;
69036;SDS011;58547;51.690;5.186;2022-12-18T07:05:28;28.77;;;14.70;;
69036;SDS011;58547;51.690;5.186;2022-12-18T07:07:53;25.73;;;13.93;;
